Time;durP1;ratioP1;P1;durP2;ratioP2;P2;SDS_P1;SDS_P2;PMS_P1;PMS_P2;Temp;Humidity;BMP_temperature;BMP_pressure;BME280_temperature;BME280_humidity;BME280_pressure;Samples;Min_cycle;Max_cycle;Signal;HPM_P1;HPM_P2
2022/11/24 00:01:14;;;;;;;22.10;4.28;;;;;;;6.98;100.00;100245.34;5319541;28;20119;-78
2022/11/24 00:03:52;;;;;;;27.33;4.55;;;;;;;7.14;100.00;100251.97;5307376;27;20081;-78
2022/11/24 00:06:24;;;;;;;20.75;4.22;;;;;;;7.09;100.00;100251.53;5331677;27;20032;-78
2022/11/24 00:08:57;;;;;;;22.67;4.00;;;;;;;7.12;100.00;100249.44;5341386;27;20027;-78
2022/11/24 00:11:31;;;;;;;23.98;4.35;;;;;;;7.11;100.00;100257.53;5341450;27;20027;-79
2022/11/24 00:14:04;;;;;;;21.30;4.53;;;;;;;7.13;100.00;100260.88;5337913;27;20027;-78
2022/11/24 00:16:37;;;;;;;23.45;4.22;;;;;;;7.06;100.00;100243.81;5340149;27;20118;-78
2022/11/24 00:19:09;;;;;;;19.83;3.78;;;;;;;7.15;100.00;100270.41;5342032;27;20036;-78
2022/11/24 00:21:41;;;;;;;24.83;3.95;;;;;;;7.08;100.00;100260.44;5344948;27;20023;-78
2022/11/24 00:24:12;;;;;;;17.13;4.03;;;;;;;7.14;100.00;100273.19;5340010;27;20101;-78
2022/11/24 00:26:44;;;;;;;17.88;4.10;;;;;;;7.13;100.00;100280.28;5345031;27;20035;-78
2022/11/24 00:29:15;;;;;;;15.90;3.53;;;;;;;6.98;100.00;100266.56;5341122;27;20126;-78
2022/11/24 00:31:47;;;;;;;15.55;3.35;;;;;;;7.04;100.00;100269.66;5347399;27;20024;-78
2022/11/24 00:34:18;;;;;;;16.52;3.75;;;;;;;7.11;100.00;100265.47;5343256;27;20060;-78
2022/11/24 00:36:50;;;;;;;22.13;3.90;;;;;;;7.10;100.00;100269.97;5342752;27;20447;-78
2022/11/24 00:39:21;;;;;;;23.20;4.15;;;;;;;7.05;100.00;100269.50;5343699;27;20111;-78
2022/11/24 00:41:52;;;;;;;18.83;4.00;;;;;;;7.08;100.00;100273.69;5344205;27;20027;-78
2022/11/24 00:44:24;;;;;;;27.80;3.65;;;;;;;7.05;100.00;100272.16;5360604;27;20034;-78
2022/11/24 00:46:55;;;;;;;15.98;3.10;;;;;;;7.04;100.00;100275.78;5341093;27;20421;-78
2022/11/24 00:49:27;;;;;;;20.85;4.45;;;;;;;7.12;100.00;100289.22;5346445;27;20081;-78
2022/11/24 00:51:58;;;;;;;17.60;3.55;;;;;;;7.13;100.00;100287.41;5343045;27;20028;-78
2022/11/24 00:54:30;;;;;;;15.88;3.10;;;;;;;7.16;100.00;100285.31;5345619;27;20375;-78
2022/11/24 00:57:01;;;;;;;16.08;3.45;;;;;;;7.10;100.00;100275.25;5343058;27;20375;-77
2022/11/24 00:59:32;;;;;;;16.95;4.13;;;;;;;7.11;100.00;100276.09;5341614;27;20027;-78
2022/11/24 01:02:04;;;;;;;20.50;3.97;;;;;;;7.07;100.00;100280.81;5341005;27;20020;-78
2022/11/24 01:04:35;;;;;;;16.90;3.83;;;;;;;7.05;100.00;100287.22;5326628;27;20080;-78
2022/11/24 01:07:07;;;;;;;20.08;4.00;;;;;;;6.96;100.00;100279.13;5305884;28;20112;-78
2022/11/24 01:09:41;;;;;;;17.00;3.63;;;;;;;7.07;100.00;100315.31;5322411;27;20039;-78
2022/11/24 01:12:13;;;;;;;16.95;3.90;;;;;;;6.98;100.00;100289.59;5320567;28;20103;-78
2022/11/24 01:14:44;;;;;;;24.75;4.90;;;;;;;6.94;100.00;100283.72;5302432;27;20174;-78
2022/11/24 01:17:16;;;;;;;18.15;3.95;;;;;;;6.93;100.00;100295.28;5323380;28;20032;-78
2022/11/24 01:19:48;;;;;;;18.88;3.95;;;;;;;7.01;100.00;100307.84;5319212;27;20463;-78
2022/11/24 01:22:19;;;;;;;20.35;3.00;;;;;;;6.86;100.00;100286.19;5319933;28;20400;-78
2022/11/24 01:24:50;;;;;;;20.77;3.63;;;;;;;7.00;100.00;100311.50;5319988;28;20452;-78
2022/11/24 01:27:22;;;;;;;16.95;3.40;;;;;;;6.90;100.00;100306.13;5323343;28;20123;-78
2022/11/24 01:29:53;;;;;;;19.77;3.50;;;;;;;6.90;100.00;100308.78;5320866;27;20048;-78
2022/11/24 01:32:25;;;;;;;18.40;3.33;;;;;;;6.84;100.00;100303.16;5318396;27;20043;-78
2022/11/24 01:34:56;;;;;;;16.10;3.17;;;;;;;6.89;100.00;100312.44;5322177;28;20051;-77
2022/11/24 01:37:28;;;;;;;16.08;3.47;;;;;;;6.70;100.00;100293.78;5322759;28;20028;-78
2022/11/24 01:39:59;;;;;;;21.25;4.45;;;;;;;6.84;100.00;100321.72;5322827;27;20480;-78
2022/11/24 01:42:49;;;;;;;19.13;3.22;;;;;;;6.80;100.00;100322.00;5320895;28;20119;-78
2022/11/24 01:45:34;;;;;;;16.27;3.65;;;;;;;6.75;100.00;100328.66;5320583;28;20109;-78
2022/11/24 01:48:14;;;;;;;23.45;5.60;;;;;;;6.78;100.00;100318.66;5320754;28;20477;-77
2022/11/24 01:50:54;;;;;;;23.40;4.68;;;;;;;6.81;100.00;100338.75;5321776;27;20012;-78
2022/11/24 01:53:25;;;;;;;21.10;3.28;;;;;;;6.75;100.00;100332.16;5304141;28;21437;-78
2022/11/24 01:55:57;;;;;;;21.20;3.97;;;;;;;6.75;100.00;100329.50;5322838;28;20491;-78
2022/11/24 01:58:31;;;;;;;15.25;3.15;;;;;;;6.77;100.00;100340.00;5323270;28;20842;-77
2022/11/24 02:01:03;;;;;;;20.33;3.72;;;;;;;6.77;100.00;100335.50;5317059;27;20016;-78
2022/11/24 02:03:37;;;;;;;18.77;3.53;;;;;;;6.77;100.00;100343.47;5320102;27;20044;-78
2022/11/24 02:06:16;;;;;;;16.85;3.08;;;;;;;6.75;100.00;100355.16;5321389;28;20123;-78
2022/11/24 02:08:59;;;;;;;25.42;4.30;;;;;;;6.76;100.00;100351.53;5318968;28;20025;-78
2022/11/24 02:11:35;;;;;;;22.27;3.67;;;;;;;6.67;100.00;100347.88;5321890;27;20032;-78
2022/11/24 02:14:10;;;;;;;24.63;4.07;;;;;;;6.69;100.00;100358.34;5320377;28;20024;-78
2022/11/24 02:16:47;;;;;;;25.50;4.05;;;;;;;6.71;100.00;100356.41;5298751;28;20118;-78
2022/11/24 02:19:35;;;;;;;21.65;4.32;;;;;;;6.77;100.00;100362.03;5320371;28;20400;-78
2022/11/24 02:22:14;;;;;;;22.08;4.20;;;;;;;6.81;100.00;100366.09;5301389;28;20024;-78
2022/11/24 02:24:55;;;;;;;17.73;3.30;;;;;;;6.79;100.00;100364.56;5320094;28;20036;-78
2022/11/24 02:27:26;;;;;;;21.58;4.45;;;;;;;6.87;100.00;100367.38;5304795;28;20032;-77
2022/11/24 02:29:58;;;;;;;24.70;4.10;;;;;;;6.90;100.00;100361.81;5317818;28;20029;-77
2022/11/24 02:32:32;;;;;;;23.30;4.90;;;;;;;6.96;100.00;100368.41;5321610;28;20024;-78
2022/11/24 02:35:05;;;;;;;22.92;4.28;;;;;;;6.96;100.00;100371.91;5320899;28;20028;-78
2022/11/24 02:37:36;;;;;;;20.85;3.97;;;;;;;6.97;100.00;100378.06;5321885;27;20021;-78
2022/11/24 02:40:09;;;;;;;23.25;4.95;;;;;;;7.05;100.00;100372.06;5296069;28;20035;-78
2022/11/24 02:42:44;;;;;;;21.35;4.05;;;;;;;7.12;100.00;100382.06;5319788;28;20437;-78
2022/11/24 02:45:16;;;;;;;19.38;3.90;;;;;;;7.19;100.00;100379.72;5293439;28;20059;-78
2022/11/24 02:47:47;;;;;;;21.15;3.53;;;;;;;7.17;100.00;100378.97;5320814;27;20440;-78
2022/11/24 02:50:19;;;;;;;18.80;4.93;;;;;;;7.32;100.00;100372.38;5319626;28;20031;-78
2022/11/24 02:52:50;;;;;;;26.83;5.47;;;;;;;7.18;100.00;100365.59;5303934;28;20032;-78
2022/11/24 02:55:22;;;;;;;21.98;4.47;;;;;;;7.35;100.00;100381.88;5320554;28;20035;-78
2022/11/24 02:57:53;;;;;;;28.48;5.40;;;;;;;7.37;100.00;100383.41;5320550;27;20530;-77
2022/11/24 03:00:25;;;;;;;19.95;4.82;;;;;;;7.36;100.00;100379.09;5320894;28;20039;-77
2022/11/24 03:02:56;;;;;;;24.73;4.40;;;;;;;7.45;100.00;100389.88;5321492;28;20024;-77
2022/11/24 03:05:28;;;;;;;22.70;5.47;;;;;;;7.48;100.00;100393.09;5336294;27;20060;-78
2022/11/24 03:07:59;;;;;;;19.88;4.03;;;;;;;7.45;100.00;100389.88;5338149;27;20375;-78
2022/11/24 03:10:31;;;;;;;22.80;4.60;;;;;;;7.44;100.00;100391.69;5339425;27;20026;-78
2022/11/24 03:13:02;;;;;;;19.48;4.18;;;;;;;7.39;100.00;100393.91;5338089;27;20040;-78
2022/11/24 03:15:34;;;;;;;22.98;4.18;;;;;;;7.45;100.00;100398.69;5342147;27;20023;-78
2022/11/24 03:18:06;;;;;;;24.30;4.80;;;;;;;7.52;100.00;100401.63;5334646;27;20031;-79
2022/11/24 03:20:37;;;;;;;28.65;5.00;;;;;;;7.58;100.00;100401.13;5342709;27;20031;-78
2022/11/24 03:23:08;;;;;;;20.83;4.75;;;;;;;7.60;100.00;100403.63;5341164;27;20487;-78
2022/11/24 03:25:40;;;;;;;24.85;5.47;;;;;;;7.66;100.00;100409.25;5340775;27;20798;-78
2022/11/24 03:28:11;;;;;;;25.30;4.78;;;;;;;7.65;100.00;100406.72;5337791;27;20438;-78
2022/11/24 03:30:43;;;;;;;17.92;3.95;;;;;;;7.65;100.00;100412.88;5342117;27;20036;-78
2022/11/24 03:33:14;;;;;;;25.05;5.32;;;;;;;7.51;100.00;100390.19;5335629;27;20128;-78
2022/11/24 03:35:46;;;;;;;21.95;5.50;;;;;;;7.68;100.00;100406.44;5337701;27;20475;-78
2022/11/24 03:38:17;;;;;;;22.17;4.43;;;;;;;7.70;100.00;100410.66;5339453;27;20023;-78
2022/11/24 03:40:48;;;;;;;28.45;5.25;;;;;;;7.65;100.00;100404.09;5342390;27;20038;-78
2022/11/24 03:43:20;;;;;;;19.58;4.22;;;;;;;7.74;100.00;100409.41;5341642;27;20444;-78
2022/11/24 03:45:52;;;;;;;22.67;5.03;;;;;;;7.76;100.00;100409.28;5342417;27;20039;-78
2022/11/24 03:48:23;;;;;;;29.92;4.80;;;;;;;7.87;100.00;100410.97;5343005;27;20086;-78
2022/11/24 03:50:57;;;;;;;26.63;4.72;;;;;;;7.80;100.00;100401.88;5341162;27;20069;-78
2022/11/24 03:53:30;;;;;;;26.25;4.80;;;;;;;7.90;100.00;100405.41;5343223;27;20378;-77
2022/11/24 03:56:02;;;;;;;30.08;4.78;;;;;;;7.89;100.00;100406.41;5340867;27;20107;-78
2022/11/24 03:58:34;;;;;;;26.95;4.43;;;;;;;7.92;100.00;100411.41;5342299;27;20048;-77
2022/11/24 04:01:05;;;;;;;24.13;5.07;;;;;;;7.91;100.00;100409.75;5341159;27;20058;-78
2022/11/24 04:03:37;;;;;;;21.48;5.07;;;;;;;7.86;100.00;100418.13;5335603;27;20472;-77
2022/11/24 04:06:10;;;;;;;26.33;4.65;;;;;;;7.82;100.00;100408.75;5320372;27;20052;-77
2022/11/24 04:08:41;;;;;;;22.45;5.07;;;;;;;7.86;100.00;100425.25;5305693;28;20431;-78
2022/11/24 04:12:42;;;;;;;21.13;4.55;;;;;;;7.85;100.00;100427.03;5320535;28;20078;-77
2022/11/24 04:14:04;;;;;;;24.27;5.22;;;;;;;7.74;100.00;100428.00;5318578;27;20097;-77
2022/11/24 04:16:35;;;;;;;25.63;5.50;;;;;;;7.78;100.00;100438.34;5316091;27;20115;-76
2022/11/24 04:19:07;;;;;;;22.20;3.88;;;;;;;7.78;100.00;100441.84;5322156;28;20020;-76
2022/11/24 04:21:38;;;;;;;25.67;4.38;;;;;;;7.78;100.00;100464.91;5319286;28;20035;-77
2022/11/24 04:24:09;;;;;;;27.48;4.35;;;;;;;7.74;100.00;100457.19;5320306;27;20020;-76
2022/11/24 04:26:41;;;;;;;20.70;4.70;;;;;;;7.69;100.00;100469.19;5304862;28;21426;-77
2022/11/24 04:29:12;;;;;;;22.80;4.80;;;;;;;7.63;100.00;100473.22;5297085;28;20414;-77
2022/11/24 04:31:43;;;;;;;21.80;3.83;;;;;;;7.56;100.00;100480.03;5319782;28;20039;-76
2022/11/24 04:34:15;;;;;;;22.80;3.40;;;;;;;7.51;100.00;100479.59;5301895;27;20016;-77
2022/11/24 04:36:46;;;;;;;20.50;4.45;;;;;;;7.44;100.00;100471.31;5317800;27;20087;-77
2022/11/24 04:39:17;;;;;;;20.83;3.55;;;;;;;7.40;100.00;100469.91;5302632;27;20036;-77
2022/11/24 04:41:49;;;;;;;18.75;3.63;;;;;;;7.34;100.00;100483.66;5317402;27;20024;-77
2022/11/24 04:44:20;;;;;;;13.82;3.40;;;;;;;7.29;100.00;100480.56;5320370;28;20039;-77
2022/11/24 04:46:51;;;;;;;20.25;3.58;;;;;;;7.24;100.00;100480.97;5318349;28;20024;-77
2022/11/24 04:49:23;;;;;;;12.77;3.25;;;;;;;7.18;100.00;100481.47;5319132;28;20028;-77
2022/11/24 04:51:54;;;;;;;13.90;2.42;;;;;;;7.16;100.00;100491.38;5302019;28;20504;-77
2022/11/24 04:54:26;;;;;;;13.73;2.60;;;;;;;7.10;100.00;100484.78;5302266;28;20391;-79
2022/11/24 04:56:57;;;;;;;12.95;3.15;;;;;;;7.09;100.00;100492.88;5320083;28;20517;-78
2022/11/24 04:59:28;;;;;;;11.18;2.20;;;;;;;7.08;100.00;100489.38;5317956;28;20070;-78
2022/11/24 05:02:00;;;;;;;10.63;1.85;;;;;;;7.01;100.00;100490.84;5320759;27;20032;-78
2022/11/24 05:04:31;;;;;;;10.05;1.70;;;;;;;6.99;100.00;100493.66;5320376;27;20052;-78
2022/11/24 05:07:03;;;;;;;12.85;2.47;;;;;;;6.97;100.00;100486.78;5320279;27;20024;-77
2022/11/24 05:10:33;;;;;;;11.18;1.88;;;;;;;6.91;100.00;100482.00;5322079;28;20035;-78
2022/11/24 05:12:30;;;;;;;10.25;1.90;;;;;;;6.88;100.00;100488.38;5320866;27;20115;-78
2022/11/24 05:15:03;;;;;;;7.97;1.58;;;;;;;6.86;100.00;100490.31;5323443;27;20365;-78
2022/11/24 05:17:38;;;;;;;8.32;1.63;;;;;;;6.90;100.00;100512.13;5322445;28;20032;-78
2022/11/24 05:20:09;;;;;;;9.45;1.63;;;;;;;6.88;100.00;100509.59;5305609;28;20028;-78
2022/11/24 05:22:41;;;;;;;11.20;1.88;;;;;;;6.84;100.00;100502.00;5322324;27;21413;-77
2022/11/24 05:25:13;;;;;;;15.73;2.70;;;;;;;6.86;100.00;100498.28;5305810;28;20457;-77
2022/11/24 05:27:44;;;;;;;10.93;1.90;;;;;;;6.98;100.00;100517.63;5321469;28;20024;-77
2022/11/24 05:30:15;;;;;;;12.98;2.15;;;;;;;6.92;100.00;100521.59;5321183;28;20037;-77
2022/11/24 05:32:47;;;;;;;13.65;2.10;;;;;;;6.90;100.00;100520.06;5321152;27;20422;-77
2022/11/24 05:35:18;;;;;;;22.45;3.58;;;;;;;6.90;100.00;100517.41;5317356;28;20119;-77
2022/11/24 05:37:50;;;;;;;15.95;3.30;;;;;;;6.96;100.00;100517.75;5317391;27;20027;-77
2022/11/24 05:40:21;;;;;;;21.73;3.22;;;;;;;6.88;100.00;100514.88;5301573;28;20020;-77
2022/11/24 05:42:53;;;;;;;15.65;3.08;;;;;;;6.98;100.00;100526.41;5306089;28;20032;-77
2022/11/24 05:45:24;;;;;;;20.02;4.05;;;;;;;7.04;100.00;100532.19;5318467;27;20055;-77
2022/11/24 05:48:04;;;;;;;18.05;3.58;;;;;;;7.08;100.00;100536.25;5321583;28;20074;-77
2022/11/24 05:50:35;;;;;;;19.88;3.92;;;;;;;7.08;100.00;100534.47;5300689;28;20016;-78
2022/11/24 05:53:09;;;;;;;19.08;4.00;;;;;;;7.11;100.00;100539.50;5315827;28;20039;-77
2022/11/24 05:55:42;;;;;;;18.38;4.32;;;;;;;7.16;100.00;100553.22;5321697;28;20055;-77
2022/11/24 05:58:13;;;;;;;21.38;3.88;;;;;;;7.21;100.00;100549.38;5321362;28;20020;-77
2022/11/24 06:00:44;;;;;;;27.17;4.40;;;;;;;7.17;100.00;100554.06;5318583;28;20032;-77
2022/11/24 06:03:16;;;;;;;20.60;4.00;;;;;;;7.23;100.00;100568.66;5316349;27;20032;-77
2022/11/24 06:05:47;;;;;;;22.30;4.32;;;;;;;7.25;100.00;100572.84;5319901;28;20067;-77
2022/11/24 06:08:18;;;;;;;14.13;3.20;;;;;;;7.24;100.00;100576.47;5319852;28;20028;-77
2022/11/24 06:10:50;;;;;;;20.55;4.30;;;;;;;7.30;100.00;100583.91;5319217;28;20115;-77
2022/11/24 06:13:21;;;;;;;14.57;3.28;;;;;;;7.33;100.00;100580.19;5323461;28;20093;-77
2022/11/24 06:16:03;;;;;;;15.10;2.80;;;;;;;7.35;100.00;100588.84;5322995;27;20036;-77
2022/11/24 06:18:35;;;;;;;19.35;3.60;;;;;;;7.22;100.00;100573.09;5303984;28;20032;-77
2022/11/24 06:21:06;;;;;;;13.98;2.85;;;;;;;7.34;100.00;100593.28;5322919;28;20040;-77
2022/11/24 06:23:38;;;;;;;15.57;4.22;;;;;;;7.34;100.00;100605.72;5306916;28;20016;-76
2022/11/24 06:26:10;;;;;;;10.07;2.20;;;;;;;7.36;100.00;100609.09;5305602;28;20043;-76
2022/11/24 06:28:41;;;;;;;13.35;2.60;;;;;;;7.34;100.00;100616.34;5320868;28;20040;-76
2022/11/24 06:31:12;;;;;;;13.57;2.20;;;;;;;7.35;100.00;100620.69;5317991;27;20024;-76
2022/11/24 06:33:44;;;;;;;12.57;2.53;;;;;;;7.37;100.00;100616.09;5319559;28;20020;-77
2022/11/24 06:36:15;;;;;;;9.60;2.13;;;;;;;7.30;100.00;100620.22;5320084;27;20057;-77
2022/11/24 06:38:46;;;;;;;10.40;1.95;;;;;;;7.38;100.00;100637.19;5319225;28;20028;-79
2022/11/24 06:41:18;;;;;;;10.00;2.08;;;;;;;7.39;100.00;100641.50;5320452;28;20155;-79
2022/11/24 06:43:49;;;;;;;11.68;2.00;;;;;;;7.33;100.00;100638.56;5296319;28;20036;-77
2022/11/24 06:46:21;;;;;;;6.20;1.63;;;;;;;7.30;100.00;100652.06;5302072;28;20064;-76
2022/11/24 06:48:52;;;;;;;12.55;3.47;;;;;;;7.27;100.00;100665.56;5318743;28;20542;-77
2022/11/24 06:51:25;;;;;;;9.52;2.03;;;;;;;7.19;100.00;100669.69;5318348;27;20117;-77
2022/11/24 06:53:56;;;;;;;13.02;2.75;;;;;;;7.21;100.00;100677.53;5321530;27;20024;-78
2022/11/24 06:56:28;;;;;;;11.63;2.40;;;;;;;7.10;100.00;100675.75;5316902;28;20024;-78
2022/11/24 06:59:02;;;;;;;12.32;2.40;;;;;;;7.07;100.00;100672.50;5319261;28;20115;-78
2022/11/24 07:01:34;;;;;;;10.10;2.05;;;;;;;7.00;100.00;100680.94;5319057;27;21022;-78
2022/11/24 07:04:05;;;;;;;10.27;1.90;;;;;;;6.94;100.00;100676.16;5317037;27;20051;-77
2022/11/24 07:06:38;;;;;;;9.73;2.20;;;;;;;7.05;100.00;100692.97;5298917;28;20040;-78
2022/11/24 07:09:12;;;;;;;5.95;1.85;;;;;;;6.93;100.00;100694.81;5320063;28;20106;-78
2022/11/24 07:11:43;;;;;;;11.60;2.53;;;;;;;7.00;100.00;100707.47;5327279;27;20032;-78
2022/11/24 07:14:14;;;;;;;10.63;1.60;;;;;;;6.92;100.00;100715.19;5305408;27;20016;-77
2022/11/24 07:16:46;;;;;;;7.13;2.38;;;;;;;6.90;100.00;100716.28;5322685;27;20384;-78
2022/11/24 07:19:17;;;;;;;10.45;2.40;;;;;;;7.05;100.00;100733.63;5321686;28;20020;-77
2022/11/24 07:21:48;;;;;;;10.20;2.67;;;;;;;7.00;100.00;100733.16;5321226;28;20028;-77
2022/11/24 07:24:20;;;;;;;6.00;1.70;;;;;;;7.03;100.00;100738.22;5301200;28;20024;-77
2022/11/24 07:26:51;;;;;;;7.57;1.60;;;;;;;7.01;100.00;100750.72;5303589;28;20062;-77
2022/11/24 07:29:22;;;;;;;10.77;1.77;;;;;;;6.98;100.00;100743.88;5319840;28;20028;-77
2022/11/24 07:31:54;;;;;;;8.27;1.60;;;;;;;6.87;100.00;100732.41;5321388;28;20118;-81
2022/11/24 07:34:25;;;;;;;11.02;1.90;;;;;;;6.84;100.00;100738.81;5302829;28;24665;-77
2022/11/24 07:36:57;;;;;;;11.80;2.05;;;;;;;6.76;100.00;100746.53;5317660;28;20877;-80
2022/11/24 07:39:28;;;;;;;5.93;1.50;;;;;;;6.72;100.00;100748.56;5326390;28;20440;-77
2022/11/24 07:41:59;;;;;;;8.25;1.60;;;;;;;6.69;100.00;100751.47;5326538;27;20028;-78
2022/11/24 07:44:31;;;;;;;9.50;2.10;;;;;;;6.71;100.00;100751.34;5317546;28;20043;-78
2022/11/24 07:47:02;;;;;;;11.77;2.30;;;;;;;6.62;100.00;100760.84;5320024;27;20021;-78
2022/11/24 07:49:34;;;;;;;9.05;1.65;;;;;;;6.70;100.00;100762.94;5304124;28;20411;-79
2022/11/24 07:52:06;;;;;;;11.73;2.53;;;;;;;6.82;100.00;100768.09;5320332;27;20035;-78
2022/11/24 07:54:37;;;;;;;13.57;2.05;;;;;;;6.74;100.00;100761.72;5322388;28;20107;-78
2022/11/24 07:57:09;;;;;;;11.23;2.00;;;;;;;6.84;100.00;100780.38;5319960;27;20039;-78
2022/11/24 07:59:40;;;;;;;6.45;1.45;;;;;;;6.71;100.00;100765.44;5310272;28;20427;-78
2022/11/24 08:02:12;;;;;;;11.63;1.92;;;;;;;6.73;100.00;100778.56;5318168;27;20036;-78
2022/11/24 08:04:43;;;;;;;8.98;1.98;;;;;;;6.78;100.00;100790.53;5326470;27;20449;-78
2022/11/24 08:07:14;;;;;;;9.18;2.00;;;;;;;6.77;100.00;100793.28;5324912;28;20487;-77
2022/11/24 08:09:46;;;;;;;11.07;1.85;;;;;;;6.78;100.00;100798.47;5325243;28;20043;-77
2022/11/24 08:12:21;;;;;;;9.68;1.80;;;;;;;6.70;100.00;100790.25;5324740;28;20036;-77
2022/11/24 08:14:52;;;;;;;9.52;2.20;;;;;;;6.76;100.00;100807.50;5305904;28;20039;-80
2022/11/24 08:17:24;;;;;;;6.63;2.05;;;;;;;6.84;100.00;100814.84;5325276;28;20017;-80
2022/11/24 08:19:55;;;;;;;8.32;2.00;;;;;;;6.85;100.00;100812.09;5325477;28;20141;-78
2022/11/24 08:22:27;;;;;;;8.57;1.88;;;;;;;6.86;100.00;100821.72;5302568;28;20047;-78
2022/11/24 08:24:58;;;;;;;12.27;2.28;;;;;;;6.90;100.00;100827.66;5314211;28;20077;-77
2022/11/24 08:27:29;;;;;;;9.45;2.10;;;;;;;6.92;100.00;100828.38;5324889;28;20063;-78
2022/11/24 08:30:05;;;;;;;13.15;2.63;;;;;;;7.02;100.00;100839.94;5325116;28;20020;-78
2022/11/24 08:32:36;;;;;;;12.85;2.78;;;;;;;7.05;100.00;100834.41;5324532;28;20082;-78
2022/11/24 08:35:11;;;;;;;8.10;2.10;;;;;;;7.04;100.00;100832.72;5325257;28;20025;-78
2022/11/24 08:37:42;;;;;;;10.93;2.50;;;;;;;7.09;100.00;100842.97;5324316;28;20020;-78
2022/11/24 08:40:13;;;;;;;9.07;2.00;;;;;;;7.14;100.00;100846.13;5324958;28;20487;-78
2022/11/24 08:42:45;;;;;;;6.78;2.15;;;;;;;7.15;100.00;100859.25;5327934;27;20066;-77
2022/11/24 08:45:16;;;;;;;8.82;2.13;;;;;;;7.18;100.00;100864.31;5328570;28;20028;-78
2022/11/24 08:47:53;;;;;;;9.02;2.13;;;;;;;7.27;100.00;100868.03;5328933;28;20486;-78
2022/11/24 08:50:25;;;;;;;11.18;2.63;;;;;;;7.25;100.00;100874.44;5328917;28;20237;-78
2022/11/24 08:52:56;;;;;;;13.43;2.90;;;;;;;7.28;100.00;100866.25;5310239;28;20472;-78
2022/11/24 08:55:27;;;;;;;13.23;3.22;;;;;;;7.28;100.00;100874.22;5329279;28;20020;-78
2022/11/24 08:57:59;;;;;;;14.20;3.50;;;;;;;7.38;100.00;100885.78;5328692;28;20047;-78
2022/11/24 09:00:30;;;;;;;10.18;2.47;;;;;;;7.42;100.00;100878.44;5328910;28;20016;-78
2022/11/24 09:03:01;;;;;;;10.88;2.80;;;;;;;7.46;100.00;100879.88;5328359;28;20384;-78
2022/11/24 09:05:33;;;;;;;10.90;2.65;;;;;;;7.53;100.00;100895.19;5328516;27;20536;-78
2022/11/24 09:08:04;;;;;;;11.27;3.25;;;;;;;7.50;100.00;100883.97;5327732;28;20467;-78
2022/11/24 09:10:36;;;;;;;11.73;2.85;;;;;;;7.56;100.00;100902.06;5326600;28;20020;-78
2022/11/24 09:13:07;;;;;;;12.38;2.40;;;;;;;7.62;100.00;100895.44;5306348;28;20089;-78
2022/11/24 09:15:38;;;;;;;10.65;2.60;;;;;;;7.76;100.00;100908.44;5306851;28;20024;-78
2022/11/24 09:18:10;;;;;;;10.90;3.17;;;;;;;7.83;100.00;100911.47;5307491;28;20016;-78
2022/11/24 09:20:41;;;;;;;13.48;3.33;;;;;;;7.82;100.00;100917.72;5288867;28;20432;-78
2022/11/24 09:23:13;;;;;;;13.73;3.67;;;;;;;7.91;100.00;100915.19;5301103;28;20538;-78
2022/11/24 09:25:45;;;;;;;14.10;3.30;;;;;;;7.99;100.00;100922.53;5327971;28;20543;-78
2022/11/24 09:28:16;;;;;;;17.58;3.30;;;;;;;8.01;100.00;100935.69;5310007;28;20095;-78
2022/11/24 09:30:47;;;;;;;14.38;3.85;;;;;;;7.97;100.00;100913.00;5328542;28;20026;-78
2022/11/24 09:33:19;;;;;;;15.98;3.90;;;;;;;8.11;100.00;100931.31;5327669;28;20071;-78
2022/11/24 09:35:50;;;;;;;17.88;4.03;;;;;;;8.22;100.00;100933.09;5309418;28;20051;-78
2022/11/24 09:38:21;;;;;;;15.82;3.90;;;;;;;8.29;100.00;100944.91;5328260;28;20016;-78
2022/11/24 09:40:53;;;;;;;18.85;3.38;;;;;;;8.28;100.00;100941.44;5309728;28;20115;-78
2022/11/24 09:43:36;;;;;;;12.82;3.42;;;;;;;8.33;100.00;100933.94;5321328;28;20070;-78
2022/11/24 09:46:19;;;;;;;15.23;3.75;;;;;;;8.43;100.00;100949.16;5306532;28;20396;-78
2022/11/24 09:48:55;;;;;;;14.23;3.45;;;;;;;8.49;100.00;100946.00;5322891;28;20028;-78
2022/11/24 09:51:30;;;;;;;14.77;3.22;;;;;;;8.54;100.00;100958.88;5327739;28;20027;-79
2022/11/24 09:54:08;;;;;;;16.83;3.78;;;;;;;8.52;100.00;100972.34;5327166;27;20484;-78
2022/11/24 09:56:41;;;;;;;22.65;3.20;;;;;;;8.63;100.00;100966.97;5327856;28;20016;-78
2022/11/24 09:59:16;;;;;;;14.65;3.38;;;;;;;8.77;100.00;100971.16;5327500;28;20028;-78
2022/11/24 10:01:48;;;;;;;13.30;3.22;;;;;;;8.81;100.00;100955.78;5313356;28;20028;-78
2022/11/24 10:04:25;;;;;;;14.00;3.63;;;;;;;8.88;100.00;100968.41;5306313;28;20040;-78
2022/11/24 10:07:26;;;;;;;15.20;3.30;;;;;;;9.01;100.00;100981.56;5306469;28;20092;-78
2022/11/24 10:10:00;;;;;;;18.77;3.13;;;;;;;9.10;100.00;100974.63;5305720;28;20032;-78
2022/11/24 10:12:34;;;;;;;16.77;3.95;;;;;;;9.32;100.00;100984.25;5306571;28;20034;-78
2022/11/24 10:15:29;;;;;;;9.05;2.75;;;;;;;9.48;100.00;100975.81;5323417;28;20468;-79
2022/11/24 10:18:20;;;;;;;18.65;3.30;;;;;;;9.54;100.00;100988.59;5327057;28;20102;-79
2022/11/24 10:21:16;;;;;;;13.30;3.67;;;;;;;9.63;100.00;100992.28;5326844;28;20044;-79
2022/11/24 10:24:14;;;;;;;19.95;5.28;;;;;;;9.61;100.00;100995.09;5308230;28;20032;-79
2022/11/24 10:27:28;;;;;;;11.40;4.57;;;;;;;9.90;100.00;100991.69;5327002;28;20024;-79
2022/11/24 10:30:00;;;;;;;24.60;5.43;;;;;;;9.98;100.00;100996.38;5327355;28;20032;-79
2022/11/24 10:32:38;;;;;;;17.33;4.80;;;;;;;10.06;100.00;101009.84;5323173;28;20023;-79
2022/11/24 10:35:18;;;;;;;13.93;4.35;;;;;;;10.16;100.00;101001.91;5306126;28;20051;-79
2022/11/24 10:38:24;;;;;;;15.65;4.18;;;;;;;10.33;100.00;101008.44;5306058;28;20068;-79
2022/11/24 10:41:15;;;;;;;15.52;3.83;;;;;;;10.57;100.00;101008.91;5313077;28;20024;-78
2022/11/24 10:43:47;;;;;;;10.43;2.78;;;;;;;10.82;100.00;101013.81;5327073;28;20024;-79
2022/11/24 10:46:27;;;;;;;17.85;3.60;;;;;;;11.32;100.00;100997.63;5330408;28;20044;-79
2022/11/24 10:49:03;;;;;;;15.02;4.15;;;;;;;12.55;100.00;101001.94;5327201;28;20022;-80
2022/11/24 10:51:49;;;;;;;11.32;2.72;;;;;;;14.09;100.00;101005.06;5326896;28;20024;-80
2022/11/24 10:54:22;;;;;;;11.65;2.38;;;;;;;15.17;100.00;101000.78;5326630;28;20476;-79
2022/11/24 10:56:54;;;;;;;10.68;3.03;;;;;;;15.74;100.00;100992.59;5328588;28;20108;-77
2022/11/24 10:59:36;;;;;;;11.95;2.55;;;;;;;16.06;100.00;100988.97;5328187;28;20076;-78
2022/11/24 11:02:28;;;;;;;9.63;2.85;;;;;;;16.52;100.00;100980.16;5300680;28;20521;-79
2022/11/24 11:05:22;;;;;;;12.65;3.55;;;;;;;17.69;100.00;100996.03;5325210;27;20040;-79
2022/11/24 11:08:13;;;;;;;11.98;3.42;;;;;;;18.82;100.00;100995.75;5325827;28;20046;-79
2022/11/24 11:10:47;;;;;;;13.25;3.40;;;;;;;18.87;100.00;100993.31;5326502;28;20020;-79
2022/11/24 11:13:23;;;;;;;7.93;2.67;;;;;;;19.10;100.00;100985.00;5309192;28;20502;-79
2022/11/24 11:15:56;;;;;;;8.55;2.50;;;;;;;18.53;100.00;100994.81;5307753;28;20016;-79
2022/11/24 11:18:32;;;;;;;9.57;2.35;;;;;;;19.00;100.00;100998.00;5308396;28;20012;-79
2022/11/24 11:21:04;;;;;;;10.00;3.25;;;;;;;19.50;100.00;100995.28;5326559;28;20123;-79
2022/11/24 11:23:44;;;;;;;10.20;3.20;;;;;;;19.40;100.00;100984.81;5326131;28;20099;-79
2022/11/24 11:26:30;;;;;;;9.57;2.70;;;;;;;18.80;100.00;100989.69;5326223;28;20024;-79
2022/11/24 11:29:15;;;;;;;9.85;2.83;;;;;;;19.07;100.00;100985.38;5307212;28;20093;-79
2022/11/24 11:32:15;;;;;;;10.70;3.13;;;;;;;19.81;100.00;100986.75;5326094;28;20143;-79
2022/11/24 11:34:47;;;;;;;11.10;3.20;;;;;;;18.99;100.00;100988.25;5310284;28;20028;-80
2022/11/24 11:37:20;;;;;;;10.48;3.00;;;;;;;18.85;100.00;100998.09;5326412;28;20051;-79
2022/11/24 11:39:55;;;;;;;11.05;3.10;;;;;;;18.78;100.00;100986.34;5325999;28;20030;-80
2022/11/24 11:42:33;;;;;;;12.47;3.37;;;;;;;20.12;100.00;100983.56;5307246;28;20025;-80
2022/11/24 11:45:12;;;;;;;11.48;2.75;;;;;;;19.48;100.00;100990.06;5325687;28;20024;-80
2022/11/24 11:47:51;;;;;;;10.60;2.92;;;;;;;20.47;100.00;100990.78;5324982;28;20032;-80